sensor_id;sensor_type;location;lat;lon;timestamp;pressure;altitude;pressure_sealevel;temperature;humidity
21300;BME280;10809;49.476;11.016;2023-01-28T00:01:26;98899.94;;;0.17;67.80
21300;BME280;10809;49.476;11.016;2023-01-28T00:03:56;98901.66;;;0.17;67.28
21300;BME280;10809;49.476;11.016;2023-01-28T00:06:27;98899.94;;;0.17;67.67
21300;BME280;10809;49.476;11.016;2023-01-28T00:08:57;98892.97;;;0.16;67.53
21300;BME280;10809;49.476;11.016;2023-01-28T00:11:28;98897.31;;;0.17;67.67
21300;BME280;10809;49.476;11.016;2023-01-28T00:13:59;98889.53;;;0.16;67.43
21300;BME280;10809;49.476;11.016;2023-01-28T00:16:29;98893.84;;;0.15;67.24
21300;BME280;10809;49.476;11.016;2023-01-28T00:19:00;98890.38;;;0.13;67.35
21300;BME280;10809;49.476;11.016;2023-01-28T00:21:30;98892.16;;;0.13;67.41
21300;BME280;10809;49.476;11.016;2023-01-28T00:24:01;98891.28;;;0.12;67.30
21300;BME280;10809;49.476;11.016;2023-01-28T00:26:31;98893.00;;;0.10;67.84
21300;BME280;10809;49.476;11.016;2023-01-28T00:29:02;98895.59;;;0.10;67.34
21300;BME280;10809;49.476;11.016;2023-01-28T00:31:32;98890.41;;;0.10;67.70
21300;BME280;10809;49.476;11.016;2023-01-28T00:34:04;98892.16;;;0.08;67.57
21300;BME280;10809;49.476;11.016;2023-01-28T00:36:35;98888.69;;;0.08;67.28
21300;BME280;10809;49.476;11.016;2023-01-28T00:39:12;98884.34;;;0.08;67.54
21300;BME280;10809;49.476;11.016;2023-01-28T00:41:45;98890.41;;;0.07;67.35
21300;BME280;10809;49.476;11.016;2023-01-28T00:44:16;98890.41;;;0.07;67.56
21300;BME280;10809;49.476;11.016;2023-01-28T00:46:46;98895.63;;;0.07;67.92
21300;BME280;10809;49.476;11.016;2023-01-28T00:49:17;98893.03;;;0.07;67.31
21300;BME280;10809;49.476;11.016;2023-01-28T00:51:47;98893.03;;;0.07;67.50
21300;BME280;10809;49.476;11.016;2023-01-28T00:54:19;98882.59;;;0.07;67.39
21300;BME280;10809;49.476;11.016;2023-01-28T00:56:50;98892.16;;;0.07;67.80
21300;BME280;10809;49.476;11.016;2023-01-28T00:59:22;98889.56;;;0.08;67.25
21300;BME280;10809;49.476;11.016;2023-01-28T01:01:53;98892.16;;;0.08;67.45
21300;BME280;10809;49.476;11.016;2023-01-28T01:04:24;98904.31;;;0.08;67.77
21300;BME280;10809;49.476;11.016;2023-01-28T01:06:56;98899.09;;;0.06;67.74
21300;BME280;10809;49.476;11.016;2023-01-28T01:09:27;98895.63;;;0.07;67.59
21300;BME280;10809;49.476;11.016;2023-01-28T01:11:57;98898.22;;;0.07;67.73
21300;BME280;10809;49.476;11.016;2023-01-28T01:14:29;98899.94;;;0.07;67.75
21300;BME280;10809;49.476;11.016;2023-01-28T01:17:00;98895.63;;;0.07;67.40
21300;BME280;10809;49.476;11.016;2023-01-28T01:19:30;98903.44;;;0.07;67.90
21300;BME280;10809;49.476;11.016;2023-01-28T01:22:01;98898.22;;;0.07;67.74
21300;BME280;10809;49.476;11.016;2023-01-28T01:24:32;98900.81;;;0.07;67.95
21300;BME280;10809;49.476;11.016;2023-01-28T01:27:03;98904.31;;;0.08;67.75
21300;BME280;10809;49.476;11.016;2023-01-28T01:29:35;98909.50;;;0.09;67.62
21300;BME280;10809;49.476;11.016;2023-01-28T01:32:06;98907.78;;;0.08;67.53
21300;BME280;10809;49.476;11.016;2023-01-28T01:34:36;98918.19;;;0.08;68.00
21300;BME280;10809;49.476;11.016;2023-01-28T01:37:07;98909.50;;;0.09;67.41
21300;BME280;10809;49.476;11.016;2023-01-28T01:39:41;98912.13;;;0.09;67.96
21300;BME280;10809;49.476;11.016;2023-01-28T01:42:12;98916.44;;;0.09;67.22
21300;BME280;10809;49.476;11.016;2023-01-28T01:44:59;98916.44;;;0.09;67.64
21300;BME280;10809;49.476;11.016;2023-01-28T01:47:47;98916.44;;;0.09;67.87
21300;BME280;10809;49.476;11.016;2023-01-28T01:50:54;98921.66;;;0.09;67.53
21300;BME280;10809;49.476;11.016;2023-01-28T01:53:27;98924.25;;;0.07;67.70
21300;BME280;10809;49.476;11.016;2023-01-28T01:56:01;98927.72;;;0.08;67.91
21300;BME280;10809;49.476;11.016;2023-01-28T01:58:37;98932.06;;;0.07;67.68
21300;BME280;10809;49.476;11.016;2023-01-28T02:01:10;98924.25;;;0.07;67.76
21300;BME280;10809;49.476;11.016;2023-01-28T02:03:54;98929.47;;;0.07;67.70
21300;BME280;10809;49.476;11.016;2023-01-28T02:06:27;98925.13;;;0.06;67.96
21300;BME280;10809;49.476;11.016;2023-01-28T02:08:58;98926.00;;;0.05;67.98
21300;BME280;10809;49.476;11.016;2023-01-28T02:11:31;98926.00;;;0.05;68.09
21300;BME280;10809;49.476;11.016;2023-01-28T02:14:04;98928.59;;;0.07;68.27
21300;BME280;10809;49.476;11.016;2023-01-28T02:16:35;98922.53;;;0.08;67.94
21300;BME280;10809;49.476;11.016;2023-01-28T02:19:06;98926.00;;;0.08;68.02
21300;BME280;10809;49.476;11.016;2023-01-28T02:27:18;98933.78;;;0.13;68.26
21300;BME280;10809;49.476;11.016;2023-01-28T02:29:54;98932.03;;;0.15;68.14
21300;BME280;10809;49.476;11.016;2023-01-28T02:32:43;98925.97;;;0.14;68.09
21300;BME280;10809;49.476;11.016;2023-01-28T02:36:05;98928.56;;;0.17;68.49
21300;BME280;10809;49.476;11.016;2023-01-28T02:38:18;98928.56;;;0.19;68.12
21300;BME280;10809;49.476;11.016;2023-01-28T02:40:57;98925.09;;;0.18;68.16
21300;BME280;10809;49.476;11.016;2023-01-28T02:43:45;98925.97;;;0.19;68.12
21300;BME280;10809;49.476;11.016;2023-01-28T02:55:23;98928.56;;;0.22;68.10
21300;BME280;10809;49.476;11.016;2023-01-28T02:58:04;98935.47;;;0.21;68.16
21300;BME280;10809;49.476;11.016;2023-01-28T03:00:48;98938.97;;;0.22;68.27
21300;BME280;10809;49.476;11.016;2023-01-28T03:03:32;98934.59;;;0.22;68.07
21300;BME280;10809;49.476;11.016;2023-01-28T03:06:11;98940.69;;;0.21;68.41
21300;BME280;10809;49.476;11.016;2023-01-28T03:08:58;98938.97;;;0.22;68.03
21300;BME280;10809;49.476;11.016;2023-01-28T03:11:57;98936.38;;;0.20;68.33
21300;BME280;10809;49.476;11.016;2023-01-28T03:17:48;98953.72;;;0.21;68.24
21300;BME280;10809;49.476;11.016;2023-01-28T03:20:47;98950.22;;;0.21;68.39
21300;BME280;10809;49.476;11.016;2023-01-28T03:23:56;98952.00;;;0.20;68.06
21300;BME280;10809;49.476;11.016;2023-01-28T03:29:46;98954.59;;;0.19;68.36
21300;BME280;10809;49.476;11.016;2023-01-28T03:32:37;98950.22;;;0.19;68.39
21300;BME280;10809;49.476;11.016;2023-01-28T03:35:30;98955.44;;;0.19;68.29
21300;BME280;10809;49.476;11.016;2023-01-28T03:38:21;98964.13;;;0.18;68.12
21300;BME280;10809;49.476;11.016;2023-01-28T03:41:01;98963.25;;;0.18;67.84
21300;BME280;10809;49.476;11.016;2023-01-28T03:43:34;98972.84;;;0.17;68.18
21300;BME280;10809;49.476;11.016;2023-01-28T03:46:05;98973.69;;;0.16;68.45
21300;BME280;10809;49.476;11.016;2023-01-28T03:48:35;98969.34;;;0.15;67.77
21300;BME280;10809;49.476;11.016;2023-01-28T03:51:09;98971.09;;;0.15;68.00
21300;BME280;10809;49.476;11.016;2023-01-28T03:53:40;98979.78;;;0.14;68.34
21300;BME280;10809;49.476;11.016;2023-01-28T03:56:11;98981.50;;;0.13;67.94
21300;BME280;10809;49.476;11.016;2023-01-28T03:58:47;98985.88;;;0.13;68.29
21300;BME280;10809;49.476;11.016;2023-01-28T04:01:27;98982.38;;;0.12;67.91
21300;BME280;10809;49.476;11.016;2023-01-28T04:03:57;98981.50;;;0.10;68.32
21300;BME280;10809;49.476;11.016;2023-01-28T04:06:30;98980.66;;;0.11;68.02
21300;BME280;10809;49.476;11.016;2023-01-28T04:09:21;98979.78;;;0.11;68.29
21300;BME280;10809;49.476;11.016;2023-01-28T04:12:19;98986.72;;;0.10;67.96
21300;BME280;10809;49.476;11.016;2023-01-28T04:14:53;98985.88;;;0.10;68.08
21300;BME280;10809;49.476;11.016;2023-01-28T04:17:29;98989.31;;;0.10;68.03
21300;BME280;10809;49.476;11.016;2023-01-28T04:20:01;98990.22;;;0.09;67.96
21300;BME280;10809;49.476;11.016;2023-01-28T04:22:31;98995.41;;;0.09;68.22
21300;BME280;10809;49.476;11.016;2023-01-28T04:25:02;99007.56;;;0.09;68.18
21300;BME280;10809;49.476;11.016;2023-01-28T04:27:32;98996.28;;;0.08;68.08
21300;BME280;10809;49.476;11.016;2023-01-28T04:30:12;99001.50;;;0.08;68.72
21300;BME280;10809;49.476;11.016;2023-01-28T04:32:51;99006.72;;;0.08;68.65
21300;BME280;10809;49.476;11.016;2023-01-28T04:35:40;99003.22;;;0.08;68.24
21300;BME280;10809;49.476;11.016;2023-01-28T04:38:22;99011.03;;;0.09;68.79
21300;BME280;10809;49.476;11.016;2023-01-28T04:41:09;99005.81;;;0.09;68.51
21300;BME280;10809;49.476;11.016;2023-01-28T04:43:40;99011.03;;;0.11;68.58
21300;BME280;10809;49.476;11.016;2023-01-28T04:46:29;99012.75;;;0.10;68.21
21300;BME280;10809;49.476;11.016;2023-01-28T04:49:19;99008.41;;;0.11;68.41
21300;BME280;10809;49.476;11.016;2023-01-28T04:52:10;99003.22;;;0.11;68.47
21300;BME280;10809;49.476;11.016;2023-01-28T04:55:07;99006.69;;;0.10;68.34
21300;BME280;10809;49.476;11.016;2023-01-28T04:57:38;99011.91;;;0.10;68.30
21300;BME280;10809;49.476;11.016;2023-01-28T05:00:11;99010.16;;;0.10;68.13
21300;BME280;10809;49.476;11.016;2023-01-28T05:02:41;99007.53;;;0.10;68.81
21300;BME280;10809;49.476;11.016;2023-01-28T05:05:12;99012.75;;;0.10;68.47
21300;BME280;10809;49.476;11.016;2023-01-28T05:08:12;99014.50;;;0.11;68.80
21300;BME280;10809;49.476;11.016;2023-01-28T05:10:43;99015.34;;;0.12;68.54
21300;BME280;10809;49.476;11.016;2023-01-28T05:13:13;99007.53;;;0.12;68.48
21300;BME280;10809;49.476;11.016;2023-01-28T05:15:50;99016.22;;;0.12;68.53
21300;BME280;10809;49.476;11.016;2023-01-28T05:18:22;99011.03;;;0.12;68.38
21300;BME280;10809;49.476;11.016;2023-01-28T05:21:08;99016.22;;;0.12;68.77
21300;BME280;10809;49.476;11.016;2023-01-28T05:23:41;99011.03;;;0.12;68.55
21300;BME280;10809;49.476;11.016;2023-01-28T05:26:11;99017.09;;;0.13;68.36
21300;BME280;10809;49.476;11.016;2023-01-28T05:28:42;99008.41;;;0.12;68.38
21300;BME280;10809;49.476;11.016;2023-01-28T05:31:13;99008.41;;;0.12;68.28
21300;BME280;10809;49.476;11.016;2023-01-28T05:33:43;99013.63;;;0.12;68.78
21300;BME280;10809;49.476;11.016;2023-01-28T05:36:15;99008.41;;;0.12;68.62
21300;BME280;10809;49.476;11.016;2023-01-28T05:38:46;99010.16;;;0.12;68.26
21300;BME280;10809;49.476;11.016;2023-01-28T05:41:17;99009.31;;;0.11;68.81
21300;BME280;10809;49.476;11.016;2023-01-28T05:43:50;99007.53;;;0.12;68.36
21300;BME280;10809;49.476;11.016;2023-01-28T05:46:53;99014.50;;;0.11;68.82
21300;BME280;10809;49.476;11.016;2023-01-28T05:49:46;99017.94;;;0.12;68.69
21300;BME280;10809;49.476;11.016;2023-01-28T05:52:35;99022.31;;;0.11;68.57
21300;BME280;10809;49.476;11.016;2023-01-28T05:55:06;99023.16;;;0.12;69.02
21300;BME280;10809;49.476;11.016;2023-01-28T05:57:37;99018.84;;;0.12;68.66
21300;BME280;10809;49.476;11.016;2023-01-28T06:00:10;99029.25;;;0.14;68.57
21300;BME280;10809;49.476;11.016;2023-01-28T06:02:50;99026.63;;;0.14;68.97
21300;BME280;10809;49.476;11.016;2023-01-28T06:05:20;99022.31;;;0.14;68.90
21300;BME280;10809;49.476;11.016;2023-01-28T06:07:51;99023.16;;;0.16;68.76
21300;BME280;10809;49.476;11.016;2023-01-28T06:10:22;99024.91;;;0.17;68.93
21300;BME280;10809;49.476;11.016;2023-01-28T06:12:52;99030.09;;;0.17;69.14
21300;BME280;10809;49.476;11.016;2023-01-28T06:15:41;99035.31;;;0.19;69.01
21300;BME280;10809;49.476;11.016;2023-01-28T06:18:20;99033.56;;;0.19;68.90
21300;BME280;10809;49.476;11.016;2023-01-28T06:20:52;99036.16;;;0.19;69.17
21300;BME280;10809;49.476;11.016;2023-01-28T06:23:22;99035.31;;;0.22;68.90
21300;BME280;10809;49.476;11.016;2023-01-28T06:25:54;99040.50;;;0.22;69.08
21300;BME280;10809;49.476;11.016;2023-01-28T06:28:25;99045.72;;;0.23;68.62
21300;BME280;10809;49.476;11.016;2023-01-28T06:30:56;99053.50;;;0.25;68.97
21300;BME280;10809;49.476;11.016;2023-01-28T06:33:26;99050.91;;;0.23;68.83
21300;BME280;10809;49.476;11.016;2023-01-28T06:36:01;99056.13;;;0.26;68.96
21300;BME280;10809;49.476;11.016;2023-01-28T06:38:31;99053.50;;;0.26;68.98
21300;BME280;10809;49.476;11.016;2023-01-28T06:41:02;99063.94;;;0.26;69.03
21300;BME280;10809;49.476;11.016;2023-01-28T06:43:32;99063.94;;;0.26;69.12
21300;BME280;10809;49.476;11.016;2023-01-28T06:46:03;99063.91;;;0.28;69.22
21300;BME280;10809;49.476;11.016;2023-01-28T06:48:34;99065.66;;;0.27;68.86
21300;BME280;10809;49.476;11.016;2023-01-28T06:51:04;99071.72;;;0.28;68.95
21300;BME280;10809;49.476;11.016;2023-01-28T06:53:35;99070.84;;;0.27;68.48
21300;BME280;10809;49.476;11.016;2023-01-28T06:56:06;99079.56;;;0.26;68.88
21300;BME280;10809;49.476;11.016;2023-01-28T06:58:37;99069.97;;;0.25;69.00
21300;BME280;10809;49.476;11.016;2023-01-28T07:01:07;99074.34;;;0.25;69.04
21300;BME280;10809;49.476;11.016;2023-01-28T07:03:38;99079.56;;;0.25;68.78
21300;BME280;10809;49.476;11.016;2023-01-28T07:06:08;99079.56;;;0.25;68.87
21300;BME280;10809;49.476;11.016;2023-01-28T07:08:38;99078.69;;;0.24;69.04
21300;BME280;10809;49.476;11.016;2023-01-28T07:11:10;99081.28;;;0.24;69.08
21300;BME280;10809;49.476;11.016;2023-01-28T07:13:41;99085.63;;;0.24;68.88
21300;BME280;10809;49.476;11.016;2023-01-28T07:16:12;99085.63;;;0.24;68.89
21300;BME280;10809;49.476;11.016;2023-01-28T07:18:43;99094.31;;;0.24;68.85
21300;BME280;10809;49.476;11.016;2023-01-28T07:21:13;99090.81;;;0.22;68.60
21300;BME280;10809;49.476;11.016;2023-01-28T07:23:44;99100.41;;;0.22;68.93
21300;BME280;10809;49.476;11.016;2023-01-28T07:26:14;99099.50;;;0.21;69.00
21300;BME280;10809;49.476;11.016;2023-01-28T07:28:45;99100.41;;;0.22;68.66
21300;BME280;10809;49.476;11.016;2023-01-28T07:31:15;99104.72;;;0.21;69.04
21300;BME280;10809;49.476;11.016;2023-01-28T07:33:46;99109.94;;;0.23;68.86
21300;BME280;10809;49.476;11.016;2023-01-28T07:36:16;99096.91;;;0.23;69.04
21300;BME280;10809;49.476;11.016;2023-01-28T07:38:46;99096.91;;;0.23;68.83
21300;BME280;10809;49.476;11.016;2023-01-28T07:41:17;99103.00;;;0.25;68.92
21300;BME280;10809;49.476;11.016;2023-01-28T07:43:47;99101.22;;;0.24;69.30
21300;BME280;10809;49.476;11.016;2023-01-28T07:46:18;99100.38;;;0.25;69.05
21300;BME280;10809;49.476;11.016;2023-01-28T07:48:48;99106.44;;;0.25;68.87
21300;BME280;10809;49.476;11.016;2023-01-28T07:51:19;99101.22;;;0.25;69.25
21300;BME280;10809;49.476;11.016;2023-01-28T07:53:49;99100.38;;;0.25;69.11
21300;BME280;10809;49.476;11.016;2023-01-28T07:56:20;99109.03;;;0.25;68.90
21300;BME280;10809;49.476;11.016;2023-01-28T07:58:50;99108.19;;;0.25;68.98
21300;BME280;10809;49.476;11.016;2023-01-28T08:01:20;99114.25;;;0.25;68.70
21300;BME280;10809;49.476;11.016;2023-01-28T08:03:51;99114.25;;;0.25;68.63
21300;BME280;10809;49.476;11.016;2023-01-28T08:06:21;99118.63;;;0.25;69.04
21300;BME280;10809;49.476;11.016;2023-01-28T08:08:52;99118.63;;;0.25;68.71
21300;BME280;10809;49.476;11.016;2023-01-28T08:11:22;99123.81;;;0.26;69.08
21300;BME280;10809;49.476;11.016;2023-01-28T08:13:53;99122.06;;;0.25;69.37
21300;BME280;10809;49.476;11.016;2023-01-28T08:16:23;99117.75;;;0.24;68.88
21300;BME280;10809;49.476;11.016;2023-01-28T08:18:54;99125.53;;;0.27;68.92
21300;BME280;10809;49.476;11.016;2023-01-28T08:21:24;99122.06;;;0.27;68.96
21300;BME280;10809;49.476;11.016;2023-01-28T08:23:55;99126.41;;;0.28;69.27
21300;BME280;10809;49.476;11.016;2023-01-28T08:26:25;99127.25;;;0.28;68.80
21300;BME280;10809;49.476;11.016;2023-01-28T08:28:56;99128.16;;;0.29;69.20
21300;BME280;10809;49.476;11.016;2023-01-28T08:31:26;99140.28;;;0.30;69.32
21300;BME280;10809;49.476;11.016;2023-01-28T08:33:58;99129.03;;;0.31;68.85
21300;BME280;10809;49.476;11.016;2023-01-28T08:36:28;99135.94;;;0.32;68.99
21300;BME280;10809;49.476;11.016;2023-01-28T08:38:59;99134.22;;;0.32;69.10
21300;BME280;10809;49.476;11.016;2023-01-28T08:41:29;99135.94;;;0.33;68.95
21300;BME280;10809;49.476;11.016;2023-01-28T08:44:00;99135.06;;;0.34;69.26
21300;BME280;10809;49.476;11.016;2023-01-28T08:46:30;99144.63;;;0.35;68.86
21300;BME280;10809;49.476;11.016;2023-01-28T08:49:01;99141.16;;;0.36;69.14
21300;BME280;10809;49.476;11.016;2023-01-28T08:51:31;99138.53;;;0.38;68.92
21300;BME280;10809;49.476;11.016;2023-01-28T08:54:02;99143.75;;;0.39;69.12
21300;BME280;10809;49.476;11.016;2023-01-28T08:56:32;99142.00;;;0.41;69.39
21300;BME280;10809;49.476;11.016;2023-01-28T08:59:03;99148.94;;;0.44;68.98
21300;BME280;10809;49.476;11.016;2023-01-28T09:01:34;99149.81;;;0.44;69.01
21300;BME280;10809;49.476;11.016;2023-01-28T09:04:04;99146.34;;;0.47;69.13
21300;BME280;10809;49.476;11.016;2023-01-28T09:06:35;99143.72;;;0.47;68.57
21300;BME280;10809;49.476;11.016;2023-01-28T09:09:05;99145.44;;;0.48;68.47
21300;BME280;10809;49.476;11.016;2023-01-28T09:11:35;99145.44;;;0.48;68.83
21300;BME280;10809;49.476;11.016;2023-01-28T09:14:06;99145.44;;;0.49;69.08
21300;BME280;10809;49.476;11.016;2023-01-28T09:16:36;99148.94;;;0.50;68.89
21300;BME280;10809;49.476;11.016;2023-01-28T09:19:07;99151.53;;;0.51;69.02
21300;BME280;10809;49.476;11.016;2023-01-28T09:21:38;99152.41;;;0.53;68.91
21300;BME280;10809;49.476;11.016;2023-01-28T09:24:10;99155.00;;;0.56;68.76
21300;BME280;10809;49.476;11.016;2023-01-28T09:26:41;99152.41;;;0.56;68.67
21300;BME280;10809;49.476;11.016;2023-01-28T09:29:13;99152.41;;;0.58;68.34
21300;BME280;10809;49.476;11.016;2023-01-28T09:31:44;99167.16;;;0.59;68.71
21300;BME280;10809;49.476;11.016;2023-01-28T09:34:14;99168.03;;;0.59;68.34
21300;BME280;10809;49.476;11.016;2023-01-28T09:36:45;99169.75;;;0.62;68.36
21300;BME280;10809;49.476;11.016;2023-01-28T09:39:15;99170.63;;;0.64;68.16
21300;BME280;10809;49.476;11.016;2023-01-28T09:46:50;99179.31;;;0.67;67.79
21300;BME280;10809;49.476;11.016;2023-01-28T09:49:32;99181.03;;;0.68;67.94
21300;BME280;10809;49.476;11.016;2023-01-28T09:52:04;99178.41;;;0.70;68.52
21300;BME280;10809;49.476;11.016;2023-01-28T09:57:41;99183.63;;;0.73;68.25
21300;BME280;10809;49.476;11.016;2023-01-28T10:00:17;99185.34;;;0.76;67.90
21300;BME280;10809;49.476;11.016;2023-01-28T10:05:47;99187.94;;;0.76;67.88
21300;BME280;10809;49.476;11.016;2023-01-28T10:11:53;99179.28;;;0.75;67.88
21300;BME280;10809;49.476;11.016;2023-01-28T10:17:42;99174.06;;;0.75;67.77
21300;BME280;10809;49.476;11.016;2023-01-28T10:20:19;99175.78;;;0.78;67.58
21300;BME280;10809;49.476;11.016;2023-01-28T10:25:33;99175.78;;;0.82;67.46
21300;BME280;10809;49.476;11.016;2023-01-28T10:28:10;99174.91;;;0.83;67.50
21300;BME280;10809;49.476;11.016;2023-01-28T10:30:44;99169.69;;;0.85;67.38
21300;BME280;10809;49.476;11.016;2023-01-28T10:33:22;99170.53;;;0.87;67.21
21300;BME280;10809;49.476;11.016;2023-01-28T10:35:55;99162.72;;;0.88;67.74
21300;BME280;10809;49.476;11.016;2023-01-28T10:38:27;99164.44;;;0.91;67.83
21300;BME280;10809;49.476;11.016;2023-01-28T10:41:02;99162.72;;;0.93;67.57
21300;BME280;10809;49.476;11.016;2023-01-28T10:43:36;99162.69;;;0.96;67.78
21300;BME280;10809;49.476;11.016;2023-01-28T10:46:25;99160.06;;;0.97;67.83
21300;BME280;10809;49.476;11.016;2023-01-28T10:49:15;99166.16;;;1.01;67.56
21300;BME280;10809;49.476;11.016;2023-01-28T10:51:47;99156.56;;;1.03;67.56
21300;BME280;10809;49.476;11.016;2023-01-28T10:54:26;99164.38;;;1.06;67.50
21300;BME280;10809;49.476;11.016;2023-01-28T10:57:02;99164.38;;;1.09;67.18
21300;BME280;10809;49.476;11.016;2023-01-28T10:59:35;99166.13;;;1.11;67.45
21300;BME280;10809;49.476;11.016;2023-01-28T11:02:32;99173.91;;;1.14;67.39
21300;BME280;10809;49.476;11.016;2023-01-28T11:07:50;99172.16;;;1.22;67.04
21300;BME280;10809;49.476;11.016;2023-01-28T11:10:29;99162.56;;;1.26;67.15
21300;BME280;10809;49.476;11.016;2023-01-28T11:13:14;99175.56;;;1.29;67.25
21300;BME280;10809;49.476;11.016;2023-01-28T11:15:51;99172.09;;;1.31;67.14
21300;BME280;10809;49.476;11.016;2023-01-28T11:18:28;99169.47;;;1.34;67.19
21300;BME280;10809;49.476;11.016;2023-01-28T11:21:02;99171.19;;;1.37;67.20
21300;BME280;10809;49.476;11.016;2023-01-28T11:23:44;99172.06;;;1.39;67.22
21300;BME280;10809;49.476;11.016;2023-01-28T11:26:20;99171.19;;;1.40;67.15
21300;BME280;10809;49.476;11.016;2023-01-28T11:28:52;99175.50;;;1.41;66.45
21300;BME280;10809;49.476;11.016;2023-01-28T11:31:24;99172.91;;;1.42;66.67
21300;BME280;10809;49.476;11.016;2023-01-28T11:33:57;99169.44;;;1.43;66.16
21300;BME280;10809;49.476;11.016;2023-01-28T11:36:31;99178.97;;;1.44;66.88
21300;BME280;10809;49.476;11.016;2023-01-28T11:39:15;99172.03;;;1.45;66.43
21300;BME280;10809;49.476;11.016;2023-01-28T11:41:47;99180.69;;;1.47;66.67
21300;BME280;10809;49.476;11.016;2023-01-28T11:44:23;99171.13;;;1.49;66.61
21300;BME280;10809;49.476;11.016;2023-01-28T11:53:06;99172.81;;;1.56;66.56
21300;BME280;10809;49.476;11.016;2023-01-28T12:01:08;99168.47;;;1.55;66.12
21300;BME280;10809;49.476;11.016;2023-01-28T12:04:10;99169.38;;;1.52;66.03
21300;BME280;10809;49.476;11.016;2023-01-28T12:23:42;99164.22;;;1.42;65.31
21300;BME280;10809;49.476;11.016;2023-01-28T12:26:30;99172.91;;;1.39;65.22
21300;BME280;10809;49.476;11.016;2023-01-28T12:29:19;99167.69;;;1.38;65.25
21300;BME280;10809;49.476;11.016;2023-01-28T12:43:07;99176.47;;;1.28;65.57
21300;BME280;10809;49.476;11.016;2023-01-28T12:45:44;99172.13;;;1.27;65.68
21300;BME280;10809;49.476;11.016;2023-01-28T12:48:22;99165.16;;;1.27;65.77
21300;BME280;10809;49.476;11.016;2023-01-28T12:51:03;99162.53;;;1.29;65.67
21300;BME280;10809;49.476;11.016;2023-01-28T12:53:51;99159.94;;;1.29;65.38
21300;BME280;10809;49.476;11.016;2023-01-28T12:58:58;99158.22;;;1.28;65.15
21300;BME280;10809;49.476;11.016;2023-01-28T13:01:43;99153.00;;;1.28;65.20
21300;BME280;10809;49.476;11.016;2023-01-28T13:07:12;99159.94;;;1.26;65.09
21300;BME280;10809;49.476;11.016;2023-01-28T13:09:58;99157.34;;;1.26;65.26
21300;BME280;10809;49.476;11.016;2023-01-28T13:12:34;99150.41;;;1.25;65.39
21300;BME280;10809;49.476;11.016;2023-01-28T13:15:12;99153.88;;;1.25;65.17
21300;BME280;10809;49.476;11.016;2023-01-28T13:17:58;99160.81;;;1.26;65.08
21300;BME280;10809;49.476;11.016;2023-01-28T13:23:20;99163.44;;;1.25;65.09
21300;BME280;10809;49.476;11.016;2023-01-28T13:25:54;99163.44;;;1.26;65.38
21300;BME280;10809;49.476;11.016;2023-01-28T13:28:31;99163.44;;;1.26;65.50
21300;BME280;10809;49.476;11.016;2023-01-28T13:31:10;99168.66;;;1.25;64.79
21300;BME280;10809;49.476;11.016;2023-01-28T13:36:32;99171.28;;;1.20;64.83
21300;BME280;10809;49.476;11.016;2023-01-28T13:39:17;99183.44;;;1.21;65.55
21300;BME280;10809;49.476;11.016;2023-01-28T13:41:53;99172.16;;;1.22;65.00
21300;BME280;10809;49.476;11.016;2023-01-28T13:47:44;99188.63;;;1.24;64.56
21300;BME280;10809;49.476;11.016;2023-01-28T13:49:54;99180.81;;;1.24;65.09
21300;BME280;10809;49.476;11.016;2023-01-28T13:52:36;99179.09;;;1.23;64.78
21300;BME280;10809;49.476;11.016;2023-01-28T14:17:39;99201.69;;;1.23;64.93
21300;BME280;10809;49.476;11.016;2023-01-28T14:20:22;99206.91;;;1.24;64.77
21300;BME280;10809;49.476;11.016;2023-01-28T14:23:01;99210.38;;;1.26;65.28
21300;BME280;10809;49.476;11.016;2023-01-28T14:28:16;99219.06;;;1.28;65.03
21300;BME280;10809;49.476;11.016;2023-01-28T14:31:25;99208.63;;;1.28;64.98
21300;BME280;10809;49.476;11.016;2023-01-28T14:33:58;99218.19;;;1.28;64.62
21300;BME280;10809;49.476;11.016;2023-01-28T14:36:42;99226.03;;;1.28;64.83
21300;BME280;10809;49.476;11.016;2023-01-28T14:39:19;99231.25;;;1.28;64.66
21300;BME280;10809;49.476;11.016;2023-01-28T14:41:52;99226.03;;;1.25;63.81
21300;BME280;10809;49.476;11.016;2023-01-28T14:50:27;99231.28;;;1.16;64.51
21300;BME280;10809;49.476;11.016;2023-01-28T14:56:21;99233.03;;;1.11;64.02
21300;BME280;10809;49.476;11.016;2023-01-28T14:58:59;99231.31;;;1.05;64.22
21300;BME280;10809;49.476;11.016;2023-01-28T15:01:30;99230.47;;;1.02;64.19
21300;BME280;10809;49.476;11.016;2023-01-28T15:04:01;99242.63;;;1.00;64.13
21300;BME280;10809;49.476;11.016;2023-01-28T15:06:34;99247.00;;;0.95;64.25
21300;BME280;10809;49.476;11.016;2023-01-28T15:09:07;99247.00;;;0.92;63.74
21300;BME280;10809;49.476;11.016;2023-01-28T15:11:41;99251.34;;;0.88;64.17
21300;BME280;10809;49.476;11.016;2023-01-28T15:14:33;99256.56;;;0.84;64.01
21300;BME280;10809;49.476;11.016;2023-01-28T15:17:04;99254.84;;;0.80;63.98
21300;BME280;10809;49.476;11.016;2023-01-28T15:19:36;99252.25;;;0.77;63.79
21300;BME280;10809;49.476;11.016;2023-01-28T15:22:06;99257.47;;;0.74;64.31
21300;BME280;10809;49.476;11.016;2023-01-28T15:24:40;99259.19;;;0.72;64.42
21300;BME280;10809;49.476;11.016;2023-01-28T15:27:16;99257.47;;;0.71;64.28
21300;BME280;10809;49.476;11.016;2023-01-28T15:29:53;99267.91;;;0.69;64.15
21300;BME280;10809;49.476;11.016;2023-01-28T15:32:29;99269.63;;;0.65;64.15
21300;BME280;10809;49.476;11.016;2023-01-28T15:35:00;99280.06;;;0.62;64.24
21300;BME280;10809;49.476;11.016;2023-01-28T15:37:30;99276.56;;;0.60;64.50
21300;BME280;10809;49.476;11.016;2023-01-28T15:40:03;99282.66;;;0.58;64.30
21300;BME280;10809;49.476;11.016;2023-01-28T15:42:37;99285.28;;;0.55;64.44
21300;BME280;10809;49.476;11.016;2023-01-28T15:45:15;99285.28;;;0.50;64.10
21300;BME280;10809;49.476;11.016;2023-01-28T15:47:47;99287.00;;;0.45;63.97
21300;BME280;10809;49.476;11.016;2023-01-28T15:50:21;99285.28;;;0.41;64.06
21300;BME280;10809;49.476;11.016;2023-01-28T15:52:53;99287.00;;;0.38;64.07
21300;BME280;10809;49.476;11.016;2023-01-28T15:55:34;99291.34;;;0.34;63.74